Terminal Aerodrome Forecast
Issued by NWS Tiyan, Guam

Home | Current Version | Previous Version | Text Only | Print | Product List | Glossary On
Versions: 1 2 3 4 5 6 7 8 9 10 11 12 13 14 15 16 17 18 19 20 21 22 23 24 25 26 27 28 29 30 31 32 33 34
000
FTPQ31 PGUM 030111 AAA
TAFGUM
TAF AMD
PGUM 030111Z 0301/0406 10013G20KT P6SM VCSH SCT015 BKN030 BKN120
      TEMPO 0301/0303 3SM +SHRA OVC015
     FM030800 11010KT P6SM VCSH SCT020 SCT050 SCT120=

USA.gov is the U.S. government's official web portal to all federal, state and local government web resources and services.